createdAt,value
2018-06-04T00:00:50.816Z,10.40
2018-06-04T00:03:21.354Z,11.07
2018-06-04T00:05:51.945Z,11.40
2018-06-04T00:08:22.520Z,11.13
2018-06-04T00:10:53.136Z,11.30
2018-06-04T00:13:23.696Z,11.77
2018-06-04T00:15:54.304Z,11.30
2018-06-04T00:18:24.863Z,11.73
2018-06-04T00:20:55.436Z,10.83
2018-06-04T00:23:26.099Z,12.73
2018-06-04T00:25:56.642Z,12.10
2018-06-04T00:28:27.258Z,11.77
2018-06-04T00:30:57.845Z,12.70
2018-06-04T00:33:28.474Z,11.90
2018-06-04T00:35:59.088Z,12.40
2018-06-04T00:38:29.679Z,11.77
2018-06-04T00:41:00.285Z,10.93
2018-06-04T00:43:30.975Z,11.90
2018-06-04T00:46:01.595Z,12.93
2018-06-04T00:48:32.340Z,12.23
2018-06-04T00:51:02.950Z,11.33
2018-06-04T00:53:33.523Z,12.90
2018-06-04T00:56:18.363Z,13.13
2018-06-04T00:58:48.962Z,14.07
2018-06-04T01:01:19.608Z,14.80
2018-06-04T01:03:50.224Z,14.70
2018-06-04T01:06:20.773Z,15.20
2018-06-04T01:08:51.356Z,13.80
2018-06-04T01:11:21.949Z,13.40
2018-06-04T01:13:52.521Z,13.63
2018-06-04T01:16:23.141Z,15.90
2018-06-04T01:18:53.694Z,16.37
2018-06-04T01:21:24.293Z,15.53
2018-06-04T01:23:54.900Z,15.10
2018-06-04T01:26:25.490Z,16.80
2018-06-04T01:28:56.080Z,13.60
2018-06-04T01:31:26.677Z,15.43
2018-06-04T01:33:57.231Z,15.30
2018-06-04T01:36:27.820Z,16.10
2018-06-04T01:38:58.502Z,16.03
2018-06-04T01:41:29.118Z,17.37
2018-06-04T01:43:59.711Z,16.63
2018-06-04T01:46:30.296Z,16.57
2018-06-04T01:49:00.958Z,14.97
2018-06-04T01:51:31.543Z,16.73
2018-06-04T01:54:01.818Z,15.13
2018-06-04T01:56:32.289Z,16.17
2018-06-04T01:59:02.923Z,16.83
2018-06-04T02:01:33.522Z,16.43
2018-06-04T02:04:04.101Z,18.07
2018-06-04T02:06:34.730Z,16.13
2018-06-04T02:09:07.110Z,16.47
2018-06-04T02:11:37.743Z,18.23
2018-06-04T02:14:08.381Z,17.47
2018-06-04T02:16:39.048Z,15.40
2018-06-04T02:19:09.632Z,15.53
2018-06-04T02:21:40.308Z,16.17
2018-06-04T02:24:11.161Z,17.97
2018-06-04T02:26:41.733Z,18.03
2018-06-04T02:29:12.326Z,17.07
2018-06-04T02:31:42.906Z,17.70
2018-06-04T02:34:13.489Z,16.40
2018-06-04T02:36:44.028Z,18.03
2018-06-04T02:39:14.729Z,19.17
2018-06-04T02:41:45.327Z,17.50
2018-06-04T02:44:15.917Z,19.03
2018-06-04T02:46:46.507Z,16.73
2018-06-04T02:49:17.094Z,18.67
2018-06-04T02:51:47.737Z,19.00
2018-06-04T02:54:18.375Z,16.53
2018-06-04T02:56:48.939Z,16.27
2018-06-04T02:59:19.527Z,18.47
2018-06-04T03:01:50.094Z,18.47
2018-06-04T03:04:20.689Z,18.40
2018-06-04T03:06:51.314Z,16.57
2018-06-04T03:09:21.927Z,18.27
2018-06-04T03:11:52.548Z,18.63
2018-06-04T03:14:23.114Z,18.33
2018-06-04T03:16:53.718Z,17.60
2018-06-04T03:19:24.370Z,17.20
2018-06-04T03:21:54.995Z,17.73
2018-06-04T03:24:25.660Z,17.77
2018-06-04T03:26:56.308Z,18.30
2018-06-04T03:29:26.941Z,18.77
2018-06-04T03:31:57.494Z,18.00
2018-06-04T03:34:28.141Z,16.83
2018-06-04T03:36:58.769Z,17.73
2018-06-04T03:39:29.372Z,16.57
2018-06-04T03:41:59.981Z,17.40
2018-06-04T03:44:30.660Z,17.77
2018-06-04T03:47:01.312Z,17.87
2018-06-04T03:49:31.955Z,16.57
2018-06-04T03:52:02.508Z,16.87
2018-06-04T03:54:33.178Z,16.87
2018-06-04T03:57:03.810Z,16.30
2018-06-04T03:59:34.447Z,16.03
2018-06-04T04:02:05.124Z,16.90
2018-06-04T04:04:35.750Z,18.30
2018-06-04T04:07:06.349Z,17.07
2018-06-04T04:09:36.974Z,18.83
2018-06-04T04:12:07.628Z,17.23
2018-06-04T04:14:38.255Z,17.23
2018-06-04T04:17:08.810Z,18.40
2018-06-04T04:19:39.433Z,18.60
2018-06-04T04:22:10.079Z,17.30
2018-06-04T04:24:40.709Z,18.47
2018-06-04T04:27:11.294Z,17.93
2018-06-04T04:29:41.918Z,19.03
2018-06-04T04:32:12.499Z,17.33
2018-06-04T04:34:43.137Z,17.77
2018-06-04T04:37:13.780Z,17.60
2018-06-04T04:39:44.803Z,18.37
2018-06-04T04:42:15.451Z,18.87
2018-06-04T04:44:46.118Z,19.57
2018-06-04T04:47:16.767Z,18.50
2018-06-04T04:49:47.462Z,18.57
2018-06-04T04:52:18.166Z,18.00
2018-06-04T04:54:48.799Z,19.70
2018-06-04T04:57:20.031Z,16.93
2018-06-04T04:59:50.688Z,18.80
2018-06-04T05:02:21.350Z,20.27
2018-06-04T05:04:52.091Z,18.43
2018-06-04T05:07:22.749Z,18.63
2018-06-04T05:09:53.409Z,17.83
2018-06-04T05:12:23.990Z,19.10
2018-06-04T05:14:54.670Z,18.03
2018-06-04T05:17:25.349Z,17.47
2018-06-04T05:19:56.064Z,19.43
2018-06-04T05:22:26.683Z,20.93
2018-06-04T05:24:57.585Z,19.80
2018-06-04T05:27:28.234Z,18.73
2018-06-04T05:29:58.863Z,18.50
2018-06-04T05:32:29.445Z,18.83
2018-06-04T05:35:00.049Z,20.03
2018-06-04T05:37:30.629Z,22.00
2018-06-04T05:40:01.282Z,20.00
2018-06-04T05:42:32.884Z,22.53
2018-06-04T05:45:03.658Z,22.97
2018-06-04T05:47:34.293Z,21.03
2018-06-04T05:50:05.048Z,22.40
2018-06-04T05:52:35.754Z,21.27
2018-06-04T05:55:06.424Z,20.33
2018-06-04T05:57:37.260Z,21.40
2018-06-04T06:00:07.925Z,20.93
2018-06-04T06:02:38.471Z,22.67
2018-06-04T06:05:09.120Z,20.37
2018-06-04T06:07:39.689Z,19.57
2018-06-04T06:10:10.286Z,20.47
2018-06-04T06:12:40.874Z,22.70
2018-06-04T06:15:11.515Z,21.57
2018-06-04T06:17:42.077Z,21.00
2018-06-04T06:20:12.758Z,21.27
2018-06-04T06:22:43.349Z,20.93
2018-06-04T06:25:14.024Z,21.67
2018-06-04T06:27:44.659Z,20.33
2018-06-04T06:30:15.367Z,22.67
2018-06-04T06:32:45.994Z,20.27
2018-06-04T06:35:16.588Z,21.47
2018-06-04T06:37:47.237Z,19.53
2018-06-04T06:40:17.846Z,19.33
2018-06-04T06:42:48.560Z,21.57
2018-06-04T06:45:19.228Z,21.47
2018-06-04T06:47:49.892Z,21.63
2018-06-04T06:50:51.464Z,19.53
2018-06-04T06:53:22.108Z,20.73
2018-06-04T06:55:52.839Z,20.87
2018-06-04T06:58:23.443Z,20.10
2018-06-04T07:00:54.083Z,20.07
2018-06-04T07:03:24.388Z,20.03
2018-06-04T07:05:54.949Z,19.97
2018-06-04T07:08:25.529Z,20.40
2018-06-04T07:10:56.174Z,21.07
2018-06-04T07:13:26.809Z,19.07
2018-06-04T07:15:57.471Z,20.67
2018-06-04T07:18:28.066Z,19.00
2018-06-04T07:20:58.667Z,18.07
2018-06-04T07:23:29.314Z,17.23
2018-06-04T07:25:59.945Z,20.50
2018-06-04T07:28:30.639Z,20.30
2018-06-04T07:31:01.235Z,19.20
2018-06-04T07:33:31.533Z,17.83
2018-06-04T07:36:12.098Z,19.27
2018-06-04T07:38:42.699Z,17.13
2018-06-04T07:41:13.325Z,17.67
2018-06-04T07:43:43.904Z,17.83
2018-06-04T07:46:14.530Z,17.57
2018-06-04T07:48:45.146Z,18.37
2018-06-04T07:51:15.759Z,18.83
2018-06-04T07:53:46.412Z,17.83
2018-06-04T07:56:17.022Z,18.03
2018-06-04T07:58:47.627Z,17.00
2018-06-04T08:01:18.319Z,18.60
2018-06-04T08:03:48.994Z,17.07
2018-06-04T08:06:19.657Z,18.03
2018-06-04T08:08:50.202Z,16.60
2018-06-04T08:11:20.910Z,15.53
2018-06-04T08:13:51.569Z,17.30
2018-06-04T08:16:22.189Z,16.30
2018-06-04T08:18:52.794Z,14.63
2018-06-04T08:21:23.531Z,13.47
2018-06-04T08:23:54.211Z,13.67
2018-06-04T08:26:24.845Z,12.73
2018-06-04T08:28:55.415Z,11.80
2018-06-04T08:31:26.058Z,11.07
2018-06-04T08:33:56.721Z,10.07
2018-06-04T08:36:27.477Z,9.70
2018-06-04T08:38:58.032Z,9.43
2018-06-04T08:41:28.634Z,10.60
2018-06-04T08:43:59.278Z,10.30
2018-06-04T08:46:29.797Z,10.27
2018-06-04T08:49:00.422Z,10.77
2018-06-04T08:51:31.011Z,9.43
2018-06-04T08:54:01.621Z,9.93
2018-06-04T08:56:32.167Z,10.40
2018-06-04T08:59:02.902Z,10.13
2018-06-04T09:01:33.506Z,10.10
2018-06-04T09:04:04.125Z,9.80
2018-06-04T09:06:34.705Z,9.47
2018-06-04T09:09:07.100Z,9.07
2018-06-04T09:11:37.664Z,8.23
2018-06-04T09:14:08.245Z,9.73
2018-06-04T09:16:38.839Z,9.33
2018-06-04T09:19:09.484Z,10.07
2018-06-04T09:21:40.082Z,8.43
2018-06-04T09:24:10.816Z,9.27
2018-06-04T09:26:41.389Z,9.03
2018-06-04T09:29:11.997Z,11.10
2018-06-04T09:31:42.524Z,12.90
2018-06-04T09:34:13.145Z,14.87
2018-06-04T09:36:43.755Z,16.33
2018-06-04T09:39:14.423Z,15.73
2018-06-04T09:41:45.073Z,13.33
2018-06-04T09:44:15.688Z,12.77
2018-06-04T09:46:46.273Z,15.87
2018-06-04T09:49:16.915Z,14.43
2018-06-04T09:51:47.511Z,16.07
2018-06-04T09:54:18.076Z,14.63
2018-06-04T09:56:48.719Z,13.10
2018-06-04T09:59:19.437Z,13.57
2018-06-04T10:01:50.012Z,10.57
2018-06-04T10:04:20.652Z,12.07
2018-06-04T10:06:51.203Z,12.77
2018-06-04T10:09:22.156Z,13.53
2018-06-04T10:11:52.764Z,11.63
2018-06-04T10:14:58.838Z,12.33
2018-06-04T10:17:29.449Z,10.57
2018-06-04T10:20:00.066Z,12.13
2018-06-04T10:22:30.670Z,9.93
2018-06-04T10:25:01.262Z,10.13
2018-06-04T10:27:31.900Z,11.07
2018-06-04T10:30:02.491Z,10.13
2018-06-04T10:32:33.078Z,9.97
2018-06-04T10:35:03.717Z,10.13
2018-06-04T10:37:34.320Z,9.30
2018-06-04T10:40:04.999Z,7.87
2018-06-04T10:42:42.189Z,8.77
2018-06-04T10:45:12.744Z,7.40
2018-06-04T10:47:43.364Z,8.63
2018-06-04T10:50:13.954Z,8.47
2018-06-04T10:52:44.539Z,7.90
2018-06-04T10:55:15.144Z,7.80
2018-06-04T10:57:45.765Z,7.17
2018-06-04T11:00:16.376Z,7.90
2018-06-04T11:02:46.927Z,7.80
2018-06-04T11:05:17.514Z,7.20
2018-06-04T11:07:48.100Z,8.00
2018-06-04T11:10:18.703Z,6.63
2018-06-04T11:12:49.365Z,6.80
2018-06-04T11:15:19.961Z,7.70
2018-06-04T11:17:50.538Z,6.93
2018-06-04T11:20:21.083Z,7.87
2018-06-04T11:22:51.772Z,6.77
2018-06-04T11:25:22.331Z,7.10
2018-06-04T11:27:52.951Z,7.40
2018-06-04T11:30:23.579Z,7.80
2018-06-04T11:32:54.207Z,6.60
2018-06-04T11:35:24.986Z,6.67
2018-06-04T11:37:55.833Z,5.70
2018-06-04T11:40:26.522Z,6.63
2018-06-04T11:42:57.412Z,6.57
2018-06-04T11:45:28.037Z,7.13
2018-06-04T11:47:58.648Z,7.40
2018-06-04T11:50:29.277Z,7.10
2018-06-04T11:52:59.855Z,6.00
2018-06-04T11:55:30.473Z,7.37
2018-06-04T11:58:01.092Z,7.57
2018-06-04T12:00:31.734Z,9.13
2018-06-04T12:03:02.436Z,9.30
2018-06-04T12:05:33.150Z,10.03
2018-06-04T12:08:03.784Z,9.27
2018-06-04T12:10:34.428Z,9.97
2018-06-04T12:13:05.116Z,9.30
2018-06-04T12:15:35.796Z,8.93
2018-06-04T12:18:06.469Z,9.53
2018-06-04T12:20:37.072Z,8.80
2018-06-04T12:23:07.706Z,8.63
2018-06-04T12:25:38.407Z,9.07
2018-06-04T12:28:09.073Z,9.33
2018-06-04T12:30:39.842Z,11.40
2018-06-04T12:33:10.550Z,9.53
2018-06-04T12:35:41.260Z,9.60
2018-06-04T12:38:11.897Z,9.73
2018-06-04T12:40:42.596Z,10.83
2018-06-04T12:43:13.301Z,12.70
2018-06-04T12:45:43.923Z,10.10
2018-06-04T12:48:14.624Z,10.47
2018-06-04T12:50:45.254Z,9.97
2018-06-04T12:53:15.947Z,10.47
2018-06-04T12:55:46.526Z,9.47
2018-06-04T12:58:17.257Z,9.27
2018-06-04T13:00:47.929Z,9.03
2018-06-04T13:03:18.573Z,9.53
2018-06-04T13:05:49.224Z,8.40
2018-06-04T13:08:19.868Z,8.67
2018-06-04T13:10:50.469Z,8.17
2018-06-04T13:13:21.018Z,8.60
2018-06-04T13:15:51.646Z,9.80
2018-06-04T13:18:22.209Z,8.47
2018-06-04T13:20:52.857Z,9.07
2018-06-04T13:23:23.385Z,7.60
2018-06-04T13:25:54.054Z,7.70
2018-06-04T13:28:24.780Z,8.70
2018-06-04T13:30:55.348Z,6.93
2018-06-04T13:33:25.983Z,7.47
2018-06-04T13:35:56.554Z,6.67
2018-06-04T13:38:27.103Z,7.50
2018-06-04T13:40:57.677Z,8.37
2018-06-04T13:43:28.257Z,7.97
2018-06-04T13:45:58.864Z,7.40
2018-06-04T13:48:29.413Z,8.00
2018-06-04T13:50:59.981Z,8.60
2018-06-04T13:53:30.542Z,7.83
2018-06-04T13:56:01.225Z,7.53
2018-06-04T13:58:31.840Z,7.67
2018-06-04T14:01:02.450Z,7.90
2018-06-04T14:03:33.141Z,7.23
2018-06-04T14:06:03.794Z,7.60
2018-06-04T14:08:34.474Z,7.80
2018-06-04T14:11:05.165Z,9.93
2018-06-04T14:13:35.810Z,9.57
2018-06-04T14:16:06.521Z,10.47
2018-06-04T14:18:37.231Z,10.30
2018-06-04T14:21:08.149Z,10.47
2018-06-04T14:23:38.812Z,10.47
2018-06-04T14:26:09.449Z,9.67
2018-06-04T14:28:40.090Z,10.70
2018-06-04T14:31:10.789Z,10.97
2018-06-04T14:33:41.448Z,10.70
2018-06-04T14:36:12.076Z,10.23
2018-06-04T14:38:42.647Z,11.17
2018-06-04T14:41:13.351Z,12.47
2018-06-04T14:43:43.966Z,10.07
2018-06-04T14:46:14.607Z,11.30
2018-06-04T14:48:45.273Z,11.20
2018-06-04T14:51:15.915Z,9.77
2018-06-04T14:53:46.604Z,10.03
2018-06-04T14:56:17.285Z,9.50
2018-06-04T14:58:47.873Z,10.47
2018-06-04T15:01:18.485Z,10.70
2018-06-04T15:03:49.077Z,10.37
2018-06-04T15:06:19.657Z,10.57
2018-06-04T15:08:50.300Z,10.10
2018-06-04T15:11:21.009Z,9.43
2018-06-04T15:13:51.702Z,10.67
2018-06-04T15:16:22.297Z,10.53
2018-06-04T15:18:52.900Z,12.20
2018-06-04T15:21:23.701Z,9.83
2018-06-04T15:23:54.264Z,11.53
2018-06-04T15:26:24.965Z,8.50
2018-06-04T15:28:55.530Z,11.67
2018-06-04T15:31:26.149Z,12.07
2018-06-04T15:34:27.451Z,11.53
2018-06-04T15:36:58.101Z,9.47
2018-06-04T15:39:28.712Z,9.87
2018-06-04T15:41:59.398Z,10.03
2018-06-04T15:44:30.013Z,9.93
2018-06-04T15:47:00.569Z,10.40
2018-06-04T15:49:31.141Z,11.60
2018-06-04T15:52:01.928Z,11.43
2018-06-04T15:54:32.523Z,10.90
2018-06-04T15:57:03.126Z,11.00
2018-06-04T15:59:33.746Z,10.47
2018-06-04T16:02:05.029Z,9.93
2018-06-04T16:04:35.649Z,9.67
2018-06-04T16:07:06.343Z,9.40
2018-06-04T16:09:37.113Z,10.37
2018-06-04T16:12:07.750Z,9.07
2018-06-04T16:14:38.315Z,9.33
2018-06-04T16:17:08.927Z,9.20
2018-06-04T16:19:39.560Z,9.60
2018-06-04T16:22:10.253Z,10.63
2018-06-04T16:24:40.844Z,9.30
2018-06-04T16:27:11.470Z,9.97
2018-06-04T16:29:42.055Z,9.57
2018-06-04T16:32:12.691Z,11.33
2018-06-04T16:34:43.304Z,10.90
2018-06-04T16:37:14.011Z,10.30
2018-06-04T16:39:44.670Z,10.73
2018-06-04T16:42:15.294Z,10.97
2018-06-04T16:44:45.956Z,10.43
2018-06-04T16:47:16.540Z,10.20
2018-06-04T16:49:47.236Z,10.17
2018-06-04T16:52:17.916Z,9.10
2018-06-04T16:54:48.532Z,9.77
2018-06-04T16:57:19.073Z,8.97
2018-06-04T16:59:49.692Z,10.17
2018-06-04T17:02:20.253Z,10.53
2018-06-04T17:04:50.580Z,9.47
2018-06-04T17:07:21.081Z,9.30
2018-06-04T17:09:51.674Z,10.07
2018-06-04T17:12:22.310Z,10.93
2018-06-04T17:14:52.887Z,9.07
2018-06-04T17:17:24.356Z,10.30
2018-06-04T17:19:54.989Z,9.53
2018-06-04T17:22:25.602Z,10.30
2018-06-04T17:24:56.179Z,10.77
2018-06-04T17:27:26.842Z,10.60
2018-06-04T17:29:57.443Z,11.83
2018-06-04T17:32:28.067Z,10.67
2018-06-04T17:34:58.693Z,11.60
2018-06-04T17:37:29.285Z,11.03
2018-06-04T17:39:59.924Z,10.37
2018-06-04T17:42:30.587Z,11.50
2018-06-04T17:45:01.241Z,12.17
2018-06-04T17:47:32.140Z,10.47
2018-06-04T17:50:02.768Z,11.37
2018-06-04T17:52:33.385Z,11.13
2018-06-04T17:55:04.062Z,10.30
2018-06-04T17:57:34.650Z,10.13
2018-06-04T18:00:05.711Z,10.93
2018-06-04T18:02:36.601Z,10.27
2018-06-04T18:05:07.224Z,10.93
2018-06-04T18:07:37.984Z,10.27
2018-06-04T18:10:08.564Z,9.80
2018-06-04T18:12:39.222Z,9.60
2018-06-04T18:15:09.853Z,9.77
2018-06-04T18:17:40.608Z,9.47
2018-06-04T18:20:11.310Z,9.23
2018-06-04T18:22:42.125Z,8.53
2018-06-04T18:25:12.825Z,8.70
2018-06-04T18:27:43.508Z,9.60
2018-06-04T18:30:14.108Z,8.37
2018-06-04T18:32:44.666Z,8.73
2018-06-04T18:35:15.269Z,10.50
2018-06-04T18:37:45.870Z,10.63
2018-06-04T18:40:16.558Z,11.23
2018-06-04T18:42:46.820Z,10.07
2018-06-04T18:45:17.336Z,9.40
2018-06-04T18:47:47.937Z,9.53
2018-06-04T18:50:18.595Z,8.97
2018-06-04T18:52:49.191Z,9.70
2018-06-04T18:55:19.844Z,9.27
2018-06-04T18:57:50.121Z,9.27
2018-06-04T19:00:20.659Z,10.13
2018-06-04T19:02:51.274Z,9.60
2018-06-04T19:05:21.865Z,9.03
2018-06-04T19:07:52.470Z,8.83
2018-06-04T19:10:23.098Z,8.83
2018-06-04T19:12:53.676Z,8.97
2018-06-04T19:15:24.309Z,9.00
2018-06-04T19:17:54.891Z,9.53
2018-06-04T19:20:25.493Z,9.63
2018-06-04T19:22:56.085Z,8.07
2018-06-04T19:25:26.682Z,9.33
2018-06-04T19:27:57.284Z,10.17
2018-06-04T19:30:27.922Z,9.40
2018-06-04T19:32:58.525Z,10.47
2018-06-04T19:35:29.105Z,14.67
2018-06-04T19:37:59.737Z,10.27
2018-06-04T19:40:30.388Z,9.93
2018-06-04T19:43:01.054Z,12.23
2018-06-04T19:45:31.807Z,11.00
2018-06-04T19:48:02.410Z,11.53
2018-06-04T19:50:33.077Z,11.43
2018-06-04T19:53:03.772Z,11.27
2018-06-04T19:55:34.363Z,11.93
2018-06-04T19:58:05.140Z,12.00
2018-06-04T20:00:35.753Z,11.57
2018-06-04T20:03:06.711Z,8.27
2018-06-04T20:05:37.377Z,11.43
2018-06-04T20:08:07.718Z,10.90
2018-06-04T20:10:38.221Z,10.40
2018-06-04T20:13:08.857Z,9.90
2018-06-04T20:15:39.443Z,9.97
2018-06-04T20:18:10.093Z,9.47
2018-06-04T20:20:40.675Z,9.80
2018-06-04T20:23:11.352Z,9.50
2018-06-04T20:25:41.961Z,10.10
2018-06-04T20:28:12.569Z,10.93
2018-06-04T20:30:43.204Z,10.63
2018-06-04T20:33:13.768Z,11.03
2018-06-04T20:35:44.360Z,11.20
2018-06-04T20:38:14.988Z,11.00
2018-06-04T20:40:45.636Z,10.60
2018-06-04T20:43:16.264Z,11.07
2018-06-04T20:45:46.943Z,10.73
2018-06-04T20:48:17.524Z,11.03
2018-06-04T20:50:48.190Z,11.77
2018-06-04T20:53:18.829Z,11.80
2018-06-04T20:55:49.555Z,11.03
2018-06-04T20:58:20.182Z,11.93
2018-06-04T21:00:50.850Z,11.37
2018-06-04T21:03:21.555Z,11.67
2018-06-04T21:05:53.479Z,11.10
2018-06-04T21:08:24.110Z,11.77
2018-06-04T21:10:56.827Z,10.20
2018-06-04T21:13:27.535Z,11.07
2018-06-04T21:15:58.190Z,10.93
2018-06-04T21:18:28.927Z,11.03
2018-06-04T21:20:59.572Z,11.27
2018-06-04T21:23:30.163Z,11.57
2018-06-04T21:26:00.801Z,10.80
2018-06-04T21:28:31.533Z,10.43
2018-06-04T21:31:02.142Z,11.83
2018-06-04T21:33:32.823Z,12.47
2018-06-04T21:36:03.526Z,11.90
2018-06-04T21:38:34.342Z,10.50
2018-06-04T21:41:05.077Z,11.90
2018-06-04T21:43:35.718Z,11.57
2018-06-04T21:46:06.416Z,10.80
2018-06-04T21:48:37.130Z,10.63
2018-06-04T21:51:07.894Z,11.00
2018-06-04T21:53:38.471Z,11.27
2018-06-04T21:56:09.132Z,11.27
2018-06-04T21:58:39.811Z,12.00
2018-06-04T22:01:10.539Z,11.40
2018-06-04T22:03:41.276Z,12.33
2018-06-04T22:06:11.955Z,12.30
2018-06-04T22:08:42.721Z,10.87
2018-06-04T22:11:13.377Z,11.07
2018-06-04T22:13:44.630Z,13.93
2018-06-04T22:16:15.353Z,12.13
2018-06-04T22:18:46.065Z,12.00
2018-06-04T22:21:16.787Z,12.67
2018-06-04T22:23:47.398Z,12.00
2018-06-04T22:26:18.018Z,11.27
2018-06-04T22:28:48.659Z,11.93
2018-06-04T22:31:19.283Z,12.33
2018-06-04T22:33:49.940Z,13.07
2018-06-04T22:36:20.552Z,12.77
2018-06-04T22:38:51.260Z,13.67
2018-06-04T22:41:21.848Z,12.43
2018-06-04T22:43:52.475Z,12.50
2018-06-04T22:46:23.146Z,12.13
2018-06-04T22:48:53.882Z,12.23
2018-06-04T22:51:24.218Z,12.40
2018-06-04T22:53:54.766Z,12.80
2018-06-04T22:56:25.476Z,12.53
2018-06-04T22:58:56.254Z,13.20
2018-06-04T23:01:26.893Z,13.50
2018-06-04T23:03:57.782Z,11.50
2018-06-04T23:06:28.551Z,13.40
2018-06-04T23:08:59.332Z,13.53
2018-06-04T23:11:29.987Z,14.47
2018-06-04T23:14:00.716Z,14.83
2018-06-04T23:16:31.435Z,13.40
2018-06-04T23:19:02.179Z,12.73
2018-06-04T23:21:32.918Z,14.17
2018-06-04T23:24:03.668Z,14.13
2018-06-04T23:26:34.332Z,13.07
2018-06-04T23:29:05.101Z,14.37
2018-06-04T23:31:35.741Z,14.07
2018-06-04T23:34:06.471Z,13.43
2018-06-04T23:36:37.222Z,13.30
2018-06-04T23:39:09.512Z,14.50
2018-06-04T23:41:40.237Z,14.00
2018-06-04T23:44:10.940Z,16.57
2018-06-04T23:46:42.306Z,15.50
2018-06-04T23:49:13.248Z,13.60
2018-06-04T23:51:44.042Z,15.57
2018-06-04T23:54:14.893Z,14.53
2018-06-04T23:56:45.758Z,13.87
2018-06-04T23:59:16.716Z,13.60
